Meteo Giornale » Osservazioni meteo Stati Uniti (USA) » Marshalltown
ore: 04:53 - Osservazioni Meteo Marshalltown
Lat. 42° 6' N Lon. 92° 54' W Alt. 296 metri s.l.m.
22 °C
Nebbia
Temp. 24 Ore
22 °C
32 °C
Nord
0 Km/h
Dew point 22 °C
Umidità 100 %
Visibilità 2 Km
Il sole sorge alle ore 06:37
Il sole tramonta alle ore 19:45
| Data e Ora | Cielo e Fenomeni | T °C | DP °C | Um. % | Pres. hPa | Vis. km | Vento km/h | |
|---|---|---|---|---|---|---|---|---|
| Oggi h: 04:53 | Nebbia | 22 | 22 | 100 | 1014 | 2 | N 0 | |
| Oggi h: 04:41 | Nebbia | 23 | 22 | 94 | 1014 | 2 | N 5.5 | |
| Oggi h: 04:31 | Foschia | 22 | 22 | 100 | 1014 | 2 | N 0 | |
| Oggi h: 04:02 | Nebbia | 22 | 22 | 100 | 1014 | 2 | N 0 | |
| Oggi h: 03:53 | Nebbia | 22 | 22 | 100 | 1014 | 2 | N 0 | |
| Oggi h: 03:30 | Nebbia | 22 | 22 | 100 | 1014 | 2 | N 0 | |
| Oggi h: 03:10 | Foschia | 22 | 22 | 100 | 1014 | 2 | N 0 | |
| Oggi h: 03:01 | Foschia | 22 | 22 | 100 | 1014 | 5 | N 0 | |
| Oggi h: 02:53 | Nebbia | 22 | 22 | 100 | 1014 | 2 | N 0 | |
| Oggi h: 01:53 | Nebbia | 22 | 22 | 100 | 1014 | 2 | N 0 | |
| Oggi h: 00:53 | Nebbia | 23 | 23 | 100 | 1014 | 2 | N 0 | |
| Oggi h: 00:50 | Foschia | 23 | 23 | 100 | 1014 | 5 | N 0 | |
| Oggi h: 00:25 | Foschia | 23 | 22 | 94 | 1014 | 5 | N 0 | |
| Ieri h: 23:53 | Foschia | 23 | 22 | 94 | 1014 | 10 | N 0 | |
| Ieri h: 22:53 | Sereno | 24 | 23 | 94 | 1013 | 10 | N 0 | |
| Ieri h: 21:53 | Sereno | 25 | 24 | 94 | 1013 | 10 | N 0 | |
| Ieri h: 20:53 | Sereno | 26 | 24 | 88 | 1013 | 10 | N 5.5 | |
| Ieri h: 19:53 | Sereno | 28 | 25 | 83 | 1012 | 10 | O/SO 9.3 | |
| Ieri h: 18:53 | Sereno | 31 | 25 | 70 | 1012 | 10 | SO 11.1 | |
| Ieri h: 17:53 | Sereno | 32 | 25 | 66 | 1012 | 10 | S/SO 13 | |
| Ieri h: 16:53 | Sereno | 32 | 24 | 62 | 1012 | 10 | SO 18.5 | |
| Ieri h: 15:53 | Sereno | 32 | 24 | 62 | 1012 | 10 | SO 11.1 | |
| Ieri h: 14:53 | Sereno | 32 | 24 | 62 | 1011 | 10 | S/SO 18.5 | |
| Ieri h: 13:53 | Sereno | 31 | 23 | 62 | 1011 | 10 | S/SE 11.1 | |
| Ieri h: 12:53 | Sereno | 29 | 23 | 70 | 1012 | 10 | SO 7.4 | |
| Ieri h: 11:53 | Sereno | 28 | 22 | 69 | 1012 | 10 | SO 7.4 | |
| Ieri h: 10:53 | Sereno | 26 | 21 | 73 | 1012 | 10 | SO 14.8 | |
| Ieri h: 09:53 | Pioggia | 25 | 20 | 73 | 1011 | 8 | O 7.4 | |
| Ieri h: 09:43 | Temporale nelle vicinanze | 26 | 20 | 69 | 1012 | 10 | O 18.5 | |
| Ieri h: 08:53 | Sereno | 25 | 19 | 69 | 1011 | 10 | SO 14.8 | |
| Ieri h: 07:53 | Sereno | 24 | 18 | 69 | 1011 | 10 | S/SO 13 | |
| Ieri h: 06:53 | Sereno | 23 | 18 | 73 | 1010 | 10 | S/SO 9.3 | |
| Ieri h: 05:53 | Sereno | 24 | 18 | 69 | 1010 | 10 | S/SO 13 | |



